createdAt,value
2023-03-06T00:02:23.874Z,3.97
2023-03-06T00:05:26.014Z,4.90
2023-03-06T00:08:28.286Z,5.63
2023-03-06T00:11:29.529Z,5.70
2023-03-06T00:14:30.902Z,4.22
2023-03-06T00:17:32.232Z,6.75
2023-03-06T00:20:34.475Z,5.93
2023-03-06T00:23:36.267Z,5.00
2023-03-06T00:26:37.556Z,5.43
2023-03-06T00:29:38.943Z,5.45
2023-03-06T00:32:40.397Z,5.63
2023-03-06T00:35:41.766Z,4.07
2023-03-06T00:38:43.118Z,6.05
2023-03-06T00:41:46.879Z,4.00
2023-03-06T00:44:48.337Z,4.80
2023-03-06T00:47:49.700Z,6.80
2023-03-06T00:50:50.935Z,4.78
2023-03-06T00:53:52.342Z,5.70
2023-03-06T00:56:53.680Z,5.03
2023-03-06T00:59:54.992Z,4.72
2023-03-06T01:02:56.329Z,2.97
2023-03-06T01:05:58.123Z,4.35
2023-03-06T01:08:59.507Z,5.95
2023-03-06T01:12:00.760Z,4.65
2023-03-06T01:15:02.276Z,4.38
2023-03-06T01:18:03.807Z,4.10
2023-03-06T01:21:05.233Z,4.97
2023-03-06T01:24:06.658Z,3.05
2023-03-06T01:27:07.931Z,4.25
2023-03-06T01:30:09.458Z,3.80
2023-03-06T01:33:10.781Z,4.93
2023-03-06T01:36:12.436Z,6.25
2023-03-06T01:39:13.695Z,5.32
2023-03-06T01:42:15.094Z,4.43
2023-03-06T01:45:16.326Z,4.10
2023-03-06T01:48:18.696Z,5.47
2023-03-06T01:51:20.521Z,3.25
2023-03-06T01:54:42.329Z,4.78
2023-03-06T01:57:45.001Z,5.65
2023-03-06T02:00:46.492Z,5.15
2023-03-06T02:03:49.732Z,4.63
2023-03-06T02:06:51.085Z,4.45
2023-03-06T02:09:52.361Z,5.03
2023-03-06T02:12:53.889Z,6.00
2023-03-06T02:15:55.663Z,4.68
2023-03-06T02:18:58.383Z,4.53
2023-03-06T02:21:59.720Z,4.68
2023-03-06T02:25:08.029Z,5.00
2023-03-06T02:28:10.887Z,4.35
2023-03-06T02:31:26.008Z,4.85
2023-03-06T02:34:27.233Z,4.45
2023-03-06T02:37:28.706Z,5.10
2023-03-06T02:40:30.377Z,5.00
2023-03-06T02:43:33.237Z,4.18
2023-03-06T02:46:34.625Z,5.18
2023-03-06T02:49:35.900Z,4.25
2023-03-06T02:52:37.198Z,4.45
2023-03-06T02:55:38.730Z,5.75
2023-03-06T02:58:40.016Z,6.07
2023-03-06T03:01:41.344Z,3.95
2023-03-06T03:04:42.747Z,4.82
2023-03-06T03:07:44.152Z,5.30
2023-03-06T03:10:45.411Z,4.68
2023-03-06T03:13:46.696Z,5.43
2023-03-06T03:16:47.980Z,4.53
2023-03-06T03:19:49.565Z,4.65
2023-03-06T03:22:52.052Z,5.35
2023-03-06T03:25:53.604Z,5.13
2023-03-06T03:28:54.890Z,4.30
2023-03-06T03:31:56.121Z,3.35
2023-03-06T03:34:57.455Z,5.57
2023-03-06T03:37:59.020Z,4.88
2023-03-06T03:41:01.465Z,4.63
2023-03-06T03:44:02.802Z,4.53
2023-03-06T03:47:04.256Z,5.57
2023-03-06T03:50:05.787Z,3.97
2023-03-06T03:53:07.035Z,5.50
2023-03-06T03:56:08.317Z,3.85
2023-03-06T03:59:10.044Z,4.43
2023-03-06T04:02:11.419Z,4.10
2023-03-06T04:05:14.569Z,4.93
2023-03-06T04:08:15.926Z,4.75
2023-03-06T04:11:17.253Z,5.80
2023-03-06T04:14:18.540Z,4.30
2023-03-06T04:17:19.812Z,3.50
2023-03-06T04:20:21.062Z,4.53
2023-03-06T04:23:24.189Z,4.65
2023-03-06T04:26:25.528Z,5.22
2023-03-06T04:29:26.803Z,3.92
2023-03-06T04:32:28.183Z,4.18
2023-03-06T04:35:29.628Z,4.63
2023-03-06T04:38:31.077Z,5.90
2023-03-06T04:41:32.712Z,6.05
2023-03-06T04:44:34.149Z,6.15
2023-03-06T04:47:35.579Z,7.00
2023-03-06T04:50:38.128Z,5.65
2023-03-06T04:53:39.373Z,4.75
2023-03-06T04:56:40.676Z,5.10
2023-03-06T04:59:41.920Z,5.35
2023-03-06T05:02:43.770Z,6.05
2023-03-06T05:05:45.132Z,4.53
2023-03-06T05:08:47.051Z,6.38
2023-03-06T05:11:48.307Z,4.55
2023-03-06T05:14:49.579Z,4.30
2023-03-06T05:17:51.214Z,5.13
2023-03-06T05:20:52.516Z,4.05
2023-03-06T05:23:53.794Z,3.80
2023-03-06T05:26:55.099Z,3.80
2023-03-06T05:29:56.387Z,4.80
2023-03-06T05:32:57.661Z,4.13
2023-03-06T05:35:58.981Z,4.07
2023-03-06T05:39:08.257Z,4.03
2023-03-06T05:42:09.793Z,3.40
2023-03-06T05:45:11.367Z,3.95
2023-03-06T05:48:13.857Z,2.90
2023-03-06T05:51:15.583Z,4.70
2023-03-06T05:54:17.421Z,4.43
2023-03-06T05:57:20.003Z,3.67
2023-03-06T06:00:21.769Z,4.35
2023-03-06T06:03:23.254Z,3.97
2023-03-06T06:06:24.620Z,3.75
2023-03-06T06:09:26.360Z,2.70
2023-03-06T06:12:27.719Z,3.58
2023-03-06T06:15:28.953Z,2.72
2023-03-06T06:18:30.247Z,3.90
2023-03-06T06:21:31.482Z,4.10
2023-03-06T06:24:32.788Z,4.32
2023-03-06T06:27:34.122Z,3.65
2023-03-06T06:30:35.410Z,3.50
2023-03-06T06:33:36.679Z,4.03
2023-03-06T06:36:38.058Z,3.40
2023-03-06T06:39:40.106Z,4.55
2023-03-06T06:42:41.732Z,4.32
2023-03-06T06:45:44.175Z,5.80
2023-03-06T06:48:47.774Z,4.82
2023-03-06T06:51:49.083Z,3.85
2023-03-06T06:54:50.859Z,3.03
2023-03-06T06:57:52.145Z,3.80
2023-03-06T07:00:53.380Z,3.33
2023-03-06T07:03:54.733Z,4.00
2023-03-06T07:06:56.860Z,3.60
2023-03-06T07:09:58.203Z,4.43
2023-03-06T07:12:59.549Z,4.85
2023-03-06T07:16:00.971Z,4.93
2023-03-06T07:19:02.428Z,4.22
2023-03-06T07:22:04.613Z,3.47
2023-03-06T07:25:06.506Z,3.65
2023-03-06T07:28:07.850Z,3.28
2023-03-06T07:31:11.468Z,3.80
2023-03-06T07:34:13.610Z,4.22
2023-03-06T07:37:14.900Z,2.63
2023-03-06T07:40:16.407Z,3.08
2023-03-06T07:43:19.663Z,3.90
2023-03-06T07:46:21.090Z,3.42
2023-03-06T07:49:22.352Z,4.10
2023-03-06T07:52:23.653Z,3.95
2023-03-06T07:55:24.950Z,3.28
2023-03-06T07:58:26.469Z,3.50
2023-03-06T08:01:27.817Z,3.63
2023-03-06T08:04:30.196Z,3.65
2023-03-06T08:07:31.530Z,3.15
2023-03-06T08:10:32.998Z,3.38
2023-03-06T08:13:34.622Z,4.13
2023-03-06T08:16:36.055Z,4.97
2023-03-06T08:19:37.371Z,4.30
2023-03-06T08:22:38.770Z,4.18
2023-03-06T08:25:40.031Z,4.35
2023-03-06T08:28:41.389Z,3.58
2023-03-06T08:31:43.862Z,4.10
2023-03-06T08:34:45.553Z,3.80
2023-03-06T08:37:46.831Z,3.38
2023-03-06T08:40:48.287Z,4.63
2023-03-06T08:43:49.781Z,3.13
2023-03-06T08:46:51.059Z,4.82
2023-03-06T08:49:52.360Z,4.20
2023-03-06T08:52:53.629Z,2.88
2023-03-06T08:55:54.937Z,3.88
2023-03-06T08:58:56.984Z,4.20
2023-03-06T09:01:58.377Z,3.40
2023-03-06T09:05:01.218Z,3.22
2023-03-06T09:08:02.679Z,3.08
2023-03-06T09:11:04.150Z,3.58
2023-03-06T09:14:05.773Z,3.17
2023-03-06T09:17:07.072Z,3.42
2023-03-06T09:20:10.669Z,3.25
2023-03-06T09:23:13.831Z,2.75
2023-03-06T09:26:15.257Z,3.95
2023-03-06T09:29:17.413Z,4.10
2023-03-06T09:32:18.992Z,3.30
2023-03-06T09:35:20.359Z,4.18
2023-03-06T09:38:22.605Z,3.90
2023-03-06T09:41:26.375Z,3.28
2023-03-06T09:44:29.133Z,3.17
2023-03-06T09:47:46.448Z,4.05
2023-03-06T09:50:58.240Z,3.05
2023-03-06T09:54:00.129Z,4.05
2023-03-06T09:57:02.582Z,3.55
2023-03-06T10:00:06.560Z,3.55
2023-03-06T10:03:26.515Z,3.05
2023-03-06T10:06:34.191Z,3.80
2023-03-06T10:09:35.672Z,4.10
2023-03-06T10:12:44.734Z,4.15
2023-03-06T10:15:47.286Z,2.83
2023-03-06T10:18:48.638Z,3.30
2023-03-06T10:22:08.500Z,2.78
2023-03-06T10:25:22.880Z,3.90
2023-03-06T10:28:28.883Z,4.13
2023-03-06T10:31:32.028Z,4.45
2023-03-06T10:34:35.936Z,3.47
2023-03-06T10:37:37.193Z,2.55
2023-03-06T10:40:42.966Z,3.20
2023-03-06T10:44:08.211Z,3.00
2023-03-06T10:47:29.982Z,4.07
2023-03-06T10:50:32.359Z,3.72
2023-03-06T10:53:33.750Z,4.03
2023-03-06T10:56:36.926Z,3.88
2023-03-06T10:59:49.839Z,3.47
2023-03-06T11:03:11.404Z,3.28
2023-03-06T11:06:14.538Z,3.30
2023-03-06T11:09:21.761Z,3.10
2023-03-06T11:12:25.905Z,2.13
2023-03-06T11:15:27.665Z,3.05
2023-03-06T11:18:34.871Z,2.72
2023-03-06T11:21:39.851Z,3.00
2023-03-06T11:24:43.551Z,3.55
2023-03-06T11:27:46.633Z,3.80
2023-03-06T11:30:51.699Z,4.05
2023-03-06T11:34:07.434Z,3.53
2023-03-06T11:37:13.503Z,3.70
2023-03-06T11:40:17.655Z,2.35
2023-03-06T11:43:33.694Z,4.07
2023-03-06T11:46:40.156Z,2.88
2023-03-06T11:49:44.304Z,2.78
2023-03-06T11:52:51.470Z,2.75
2023-03-06T11:55:52.789Z,2.78
2023-03-06T11:59:03.378Z,3.08
2023-03-06T12:02:14.978Z,3.30
2023-03-06T12:05:32.641Z,2.78
2023-03-06T12:08:53.003Z,3.97
2023-03-06T12:12:09.635Z,2.85
2023-03-06T12:15:11.013Z,3.75
2023-03-06T12:18:38.492Z,3.35
2023-03-06T12:21:51.807Z,3.03
2023-03-06T12:24:59.233Z,2.35
2023-03-06T12:28:06.619Z,3.17
2023-03-06T12:31:17.525Z,2.85
2023-03-06T12:34:25.046Z,2.47
2023-03-06T12:37:29.368Z,2.05
2023-03-06T12:40:34.853Z,2.53
2023-03-06T12:43:54.836Z,3.55
2023-03-06T12:47:02.130Z,2.88
2023-03-06T12:50:07.549Z,2.85
2023-03-06T12:53:13.914Z,3.78
2023-03-06T12:56:17.069Z,2.97
2023-03-06T12:59:34.975Z,3.60
2023-03-06T13:03:14.967Z,3.50
2023-03-06T13:06:27.848Z,3.08
2023-03-06T13:09:57.392Z,3.38
2023-03-06T13:13:01.105Z,3.45
2023-03-06T13:16:21.063Z,3.72
2023-03-06T13:19:26.105Z,3.97
2023-03-06T13:22:28.662Z,2.90
2023-03-06T13:25:29.960Z,3.13
2023-03-06T13:28:45.072Z,2.92
2023-03-06T13:31:46.422Z,3.50
2023-03-06T13:34:49.847Z,2.17
2023-03-06T13:37:52.459Z,2.15
2023-03-06T13:41:13.674Z,3.00
2023-03-06T13:44:24.511Z,1.52
2023-03-06T13:48:01.427Z,2.97
2023-03-06T13:51:13.191Z,3.05
2023-03-06T13:54:25.101Z,2.30
2023-03-06T13:57:29.117Z,2.65
2023-03-06T14:00:33.293Z,2.28
2023-03-06T14:03:34.552Z,3.03
2023-03-06T14:06:35.844Z,2.10
2023-03-06T14:09:44.818Z,2.85
2023-03-06T14:12:49.203Z,2.40
2023-03-06T14:15:51.442Z,2.22
2023-03-06T14:18:54.146Z,2.60
2023-03-06T14:21:57.341Z,1.90
2023-03-06T14:25:03.678Z,1.90
2023-03-06T14:28:13.786Z,2.25
2023-03-06T14:31:23.096Z,2.28
2023-03-06T14:34:28.717Z,2.38
2023-03-06T14:37:30.886Z,1.27
2023-03-06T14:40:36.880Z,2.08
2023-03-06T14:43:38.266Z,1.45
2023-03-06T14:46:39.590Z,1.83
2023-03-06T14:49:40.913Z,1.77
2023-03-06T14:52:42.780Z,1.80
2023-03-06T14:55:50.090Z,1.83
2023-03-06T14:58:53.839Z,1.75
2023-03-06T15:02:03.207Z,1.30
2023-03-06T15:05:06.939Z,1.52
2023-03-06T15:08:08.614Z,2.10
2023-03-06T15:11:09.918Z,1.35
2023-03-06T15:14:17.326Z,1.80
2023-03-06T15:17:18.611Z,1.92
2023-03-06T15:20:38.379Z,1.55
2023-03-06T15:24:06.014Z,1.85
2023-03-06T15:27:07.680Z,1.70
2023-03-06T15:30:35.330Z,2.42
2023-03-06T15:33:37.261Z,2.40
2023-03-06T15:36:42.859Z,2.05
2023-03-06T15:39:44.223Z,2.72
2023-03-06T15:42:46.063Z,1.75
2023-03-06T15:45:47.375Z,2.85
2023-03-06T15:48:55.404Z,2.80
2023-03-06T15:51:56.782Z,2.67
2023-03-06T15:54:58.090Z,4.10
2023-03-06T15:58:00.949Z,4.60
2023-03-06T16:01:03.666Z,3.15
2023-03-06T16:04:05.205Z,2.40
2023-03-06T16:07:06.544Z,3.38
2023-03-06T16:10:09.533Z,3.67
2023-03-06T16:13:16.110Z,2.78
2023-03-06T16:16:24.446Z,2.00
2023-03-06T16:19:27.405Z,2.55
2023-03-06T16:22:29.231Z,3.47
2023-03-06T16:25:30.774Z,4.00
2023-03-06T16:28:32.600Z,3.92
2023-03-06T16:31:34.030Z,2.88
2023-03-06T16:34:35.350Z,4.22
2023-03-06T16:37:36.806Z,2.90
2023-03-06T16:40:41.124Z,4.22
2023-03-06T16:43:42.507Z,3.40
2023-03-06T16:46:47.777Z,3.63
2023-03-06T16:49:49.811Z,2.72
2023-03-06T16:52:52.015Z,2.78
2023-03-06T16:55:53.326Z,3.38
2023-03-06T16:58:54.699Z,3.25
2023-03-06T17:01:56.064Z,3.55
2023-03-06T17:04:57.374Z,4.07
2023-03-06T17:07:58.739Z,2.85
2023-03-06T17:11:00.075Z,3.22
2023-03-06T17:14:01.443Z,3.83
2023-03-06T17:17:02.879Z,4.20
2023-03-06T17:20:05.739Z,3.83
2023-03-06T17:23:07.151Z,4.00
2023-03-06T17:26:09.965Z,3.25
2023-03-06T17:29:11.988Z,3.15
2023-03-06T17:32:13.821Z,3.25
2023-03-06T17:35:15.218Z,3.67
2023-03-06T17:38:16.552Z,3.42
2023-03-06T17:41:17.917Z,3.50
2023-03-06T17:44:19.809Z,4.57
2023-03-06T17:47:21.178Z,3.15
2023-03-06T17:50:22.549Z,2.92
2023-03-06T17:53:23.922Z,3.67
2023-03-06T17:56:25.943Z,2.58
2023-03-06T17:59:27.700Z,3.42
2023-03-06T18:02:28.973Z,2.85
2023-03-06T18:05:30.259Z,4.53
2023-03-06T18:08:32.198Z,5.10
2023-03-06T18:11:33.499Z,3.25
2023-03-06T18:14:36.929Z,3.50
2023-03-06T18:17:38.611Z,2.72
2023-03-06T18:20:40.591Z,4.68
2023-03-06T18:23:41.912Z,3.28
2023-03-06T18:26:43.235Z,2.47
2023-03-06T18:29:44.528Z,3.15
2023-03-06T18:32:45.868Z,3.67
2023-03-06T18:35:47.161Z,3.78
2023-03-06T18:38:49.811Z,3.75
2023-03-06T18:41:52.066Z,3.65
2023-03-06T18:44:53.363Z,4.80
2023-03-06T18:47:54.721Z,3.60
2023-03-06T18:50:56.214Z,4.78
2023-03-06T18:53:58.029Z,3.50
2023-03-06T18:56:59.414Z,4.15
2023-03-06T19:00:00.813Z,4.63
2023-03-06T19:03:02.143Z,4.22
2023-03-06T19:06:13.285Z,3.65
2023-03-06T19:09:14.612Z,3.97
2023-03-06T19:12:16.716Z,3.35
2023-03-06T19:15:18.012Z,3.85
2023-03-06T19:18:19.334Z,4.40
2023-03-06T19:21:21.555Z,3.13
2023-03-06T19:24:22.823Z,4.57
2023-03-06T19:27:24.129Z,4.13
2023-03-06T19:30:25.787Z,3.17
2023-03-06T19:33:27.101Z,4.65
2023-03-06T19:36:33.297Z,3.40
2023-03-06T19:39:35.126Z,5.57
2023-03-06T19:42:36.449Z,3.95
2023-03-06T19:45:41.213Z,3.95
2023-03-06T19:48:42.600Z,4.07
2023-03-06T19:51:43.994Z,5.03
2023-03-06T19:54:47.012Z,4.38
2023-03-06T19:57:48.969Z,3.55
2023-03-06T20:00:50.249Z,4.15
2023-03-06T20:03:59.248Z,3.28
2023-03-06T20:07:01.014Z,2.78
2023-03-06T20:10:02.859Z,2.97
2023-03-06T20:13:04.429Z,3.83
2023-03-06T20:16:06.031Z,3.85
2023-03-06T20:19:08.582Z,4.38
2023-03-06T20:22:09.955Z,3.58
2023-03-06T20:25:11.334Z,3.72
2023-03-06T20:28:12.661Z,3.70
2023-03-06T20:31:18.388Z,2.55
2023-03-06T20:34:19.924Z,4.53
2023-03-06T20:37:21.471Z,4.38
2023-03-06T20:40:22.860Z,3.42
2023-03-06T20:43:24.228Z,4.32
2023-03-06T20:46:25.936Z,2.90
2023-03-06T20:49:28.418Z,1.60
2023-03-06T20:52:32.909Z,4.63
2023-03-06T20:55:36.345Z,3.17
2023-03-06T20:58:37.676Z,4.30
2023-03-06T21:01:41.185Z,2.58
2023-03-06T21:04:42.710Z,3.88
2023-03-06T21:07:44.060Z,4.95
2023-03-06T21:10:46.548Z,2.88
2023-03-06T21:13:47.894Z,4.32
2023-03-06T21:16:49.170Z,4.05
2023-03-06T21:19:50.793Z,4.55
2023-03-06T21:22:52.237Z,4.47
2023-03-06T21:25:53.828Z,3.80
2023-03-06T21:28:58.982Z,2.97
2023-03-06T21:32:00.288Z,4.70
2023-03-06T21:35:01.619Z,3.58
2023-03-06T21:38:02.948Z,4.97
2023-03-06T21:41:11.257Z,3.70
2023-03-06T21:44:12.590Z,4.30
2023-03-06T21:47:13.924Z,3.47
2023-03-06T21:50:15.256Z,5.35
2023-03-06T21:53:16.505Z,3.60
2023-03-06T21:56:18.539Z,3.42
2023-03-06T21:59:19.880Z,3.70
2023-03-06T22:02:21.283Z,4.15
2023-03-06T22:05:24.287Z,4.55
2023-03-06T22:08:25.610Z,5.15
2023-03-06T22:11:28.170Z,4.38
2023-03-06T22:14:29.554Z,4.13
2023-03-06T22:17:31.324Z,5.32
2023-03-06T22:20:32.605Z,2.90
2023-03-06T22:23:33.874Z,4.93
2023-03-06T22:26:35.170Z,4.75
2023-03-06T22:29:36.589Z,5.63
2023-03-06T22:32:38.031Z,3.95
2023-03-06T22:35:39.339Z,3.75
2023-03-06T22:38:41.962Z,4.53
2023-03-06T22:41:43.254Z,4.13
2023-03-06T22:44:44.545Z,5.07
2023-03-06T22:47:45.832Z,5.82
2023-03-06T22:50:47.321Z,3.25
2023-03-06T22:53:49.052Z,4.70
2023-03-06T22:56:50.299Z,4.72
2023-03-06T22:59:51.658Z,6.18
2023-03-06T23:02:53.042Z,4.03
2023-03-06T23:05:54.302Z,3.00
2023-03-06T23:08:59.950Z,4.15
2023-03-06T23:12:01.356Z,5.05
2023-03-06T23:15:02.638Z,5.07
2023-03-06T23:18:04.151Z,5.97
2023-03-06T23:21:10.027Z,4.63
2023-03-06T23:24:11.562Z,6.50
2023-03-06T23:27:12.950Z,5.22
2023-03-06T23:30:14.443Z,5.25
2023-03-06T23:33:15.671Z,4.45
2023-03-06T23:36:18.150Z,3.78
2023-03-06T23:39:19.461Z,4.22
2023-03-06T23:42:20.927Z,5.25
2023-03-06T23:45:22.380Z,4.15
2023-03-06T23:48:24.009Z,4.43
2023-03-06T23:51:25.374Z,4.70
2023-03-06T23:54:26.615Z,4.15
2023-03-06T23:57:29.239Z,5.22
